Weather at Parrish RLA Restricted Landing Area [CLOSED]

Public forecast

Using degrees Fahrenheit for public forecast. Weather courtesy of forecast.io.

Closest aviation weather report (METAR) to Parrish RLA Restricted Landing Area

Closest report is Marshall County Airport, 4.1 nm (7.7 km) NNE. Retrieved 2021/08/02 12:15 UTC (12 minutes ago):

KC75 021215Z AUTO 00000KT 5SM SCT001 14/14 A3019 RMK AO2 T01430138 PWINO

Closest aviation forecast (TAF) to Parrish RLA Restricted Landing Area

Closest forecast is General Wayne A. Downing Peoria International Airport, 21.6 nm (40.0 km) SW. Retrieved 2021/08/02 12:22 UTC (5 minutes ago):

TAF KPIA 021120Z 0212/0312 VRB03KT 4SM BR SKC FM021400 02005KT P6SM SKC FM021700 02007KT P6SM BKN035 FM022300 VRB03KT P6SM FEW050